Time;durP1;ratioP1;P1;durP2;ratioP2;P2;SDS_P1;SDS_P2;PMS_P1;PMS_P2;Temp;Humidity;BMP_temperature;BMP_pressure;BME280_temperature;BME280_humidity;BME280_pressure;Samples;Min_cycle;Max_cycle;Signal;HPM_P1;HPM_P2
2022/11/07 00:02:28;;;;;;;3.90;3.30;;;9.90;99.90;;;;;;5013637;28;20236;-60
2022/11/07 00:04:58;;;;;;;4.40;3.83;;;9.90;99.90;;;;;;5046088;28;20234;-60
2022/11/07 00:07:26;;;;;;;4.00;3.60;;;9.90;99.90;;;;;;5014232;28;20229;-60
2022/11/07 00:09:54;;;;;;;4.93;3.83;;;9.90;99.90;;;;;;5014179;28;20236;-60
2022/11/07 00:12:22;;;;;;;4.80;3.73;;;10.00;99.90;;;;;;5014419;28;20233;-60
2022/11/07 00:14:50;;;;;;;4.27;3.57;;;10.00;99.90;;;;;;5006105;28;20229;-60
2022/11/07 00:17:18;;;;;;;4.33;3.87;;;10.00;99.90;;;;;;5010250;28;20233;-60
2022/11/07 00:19:48;;;;;;;5.33;3.77;;;10.00;99.90;;;;;;5010253;28;20706;-60
2022/11/07 00:22:17;;;;;;;4.10;3.70;;;10.10;99.90;;;;;;5018350;28;20218;-60
2022/11/07 00:24:45;;;;;;;4.43;3.70;;;10.10;99.90;;;;;;5018462;28;20644;-60
2022/11/07 00:27:13;;;;;;;5.53;4.10;;;10.10;99.90;;;;;;5018712;28;20778;-60
2022/11/07 00:29:41;;;;;;;5.37;3.90;;;10.10;99.90;;;;;;5010286;28;20235;-60
2022/11/07 00:32:09;;;;;;;5.43;4.00;;;10.20;99.90;;;;;;5017908;28;20232;-60
2022/11/07 00:34:37;;;;;;;4.93;3.50;;;10.20;99.90;;;;;;5018211;28;20240;-60
2022/11/07 00:37:05;;;;;;;5.37;4.10;;;10.20;99.90;;;;;;5018312;28;20225;-60
2022/11/07 00:39:35;;;;;;;5.73;4.50;;;10.20;99.90;;;;;;5018399;28;20225;-60
2022/11/07 00:42:03;;;;;;;6.07;4.17;;;10.20;99.90;;;;;;5018400;28;20249;-60
2022/11/07 00:44:31;;;;;;;5.07;4.50;;;10.20;99.90;;;;;;5011503;28;20254;-60
2022/11/07 00:46:59;;;;;;;5.40;4.30;;;10.20;99.90;;;;;;5016798;28;20256;-60
2022/11/07 00:49:27;;;;;;;4.30;3.90;;;10.20;99.90;;;;;;5011512;28;20226;-60
2022/11/07 00:51:55;;;;;;;4.77;4.27;;;10.30;99.90;;;;;;5015243;28;20229;-60
2022/11/07 00:54:23;;;;;;;7.27;4.20;;;10.30;99.90;;;;;;5017711;28;20237;-60
2022/11/07 00:56:52;;;;;;;5.93;4.03;;;10.20;99.90;;;;;;5015604;28;20240;-60
2022/11/07 00:59:20;;;;;;;5.63;4.23;;;10.30;99.90;;;;;;5009452;28;20224;-60
2022/11/07 01:01:49;;;;;;;5.27;4.27;;;10.30;99.90;;;;;;5017022;28;20242;-60
2022/11/07 01:07:05;;;;;;;7.30;4.10;;;10.30;99.90;;;;;;5017362;28;20688;-60
2022/11/07 01:09:35;;;;;;;4.50;4.10;;;10.30;99.90;;;;;;5016808;28;20581;-60
2022/11/07 01:12:07;;;;;;;5.20;3.80;;;10.30;99.90;;;;;;5017119;28;20225;-60
2022/11/07 01:14:36;;;;;;;5.00;3.87;;;10.30;99.90;;;;;;5009445;28;20226;-60
2022/11/07 01:17:06;;;;;;;5.07;3.57;;;10.30;99.90;;;;;;5009820;28;20234;-60
2022/11/07 01:19:35;;;;;;;4.37;3.90;;;10.30;99.90;;;;;;5009741;28;20730;-60
2022/11/07 01:22:04;;;;;;;5.93;4.13;;;10.30;99.90;;;;;;5016303;28;20284;-60
2022/11/07 01:24:33;;;;;;;6.50;4.10;;;10.30;99.90;;;;;;5016677;28;20252;-60
2022/11/07 01:27:03;;;;;;;7.53;3.87;;;10.30;99.90;;;;;;5016850;28;20242;-60
2022/11/07 01:29:33;;;;;;;5.30;4.00;;;10.30;99.90;;;;;;5006879;28;20230;-60
2022/11/07 01:32:03;;;;;;;5.50;3.93;;;10.30;99.90;;;;;;5016266;28;20303;-60
2022/11/07 01:34:32;;;;;;;6.67;4.03;;;10.30;99.90;;;;;;5031340;28;20229;-60
2022/11/07 01:37:02;;;;;;;5.77;4.00;;;10.30;99.90;;;;;;5036854;28;20239;-60
2022/11/07 01:39:31;;;;;;;6.93;4.33;;;10.30;99.90;;;;;;5036074;28;20301;-60
2022/11/07 01:42:00;;;;;;;5.80;4.13;;;10.30;99.90;;;;;;5015393;28;20702;-60
2022/11/07 01:44:59;;;;;;;6.33;4.20;;;10.30;99.90;;;;;;5008510;28;20245;-60
2022/11/07 01:47:33;;;;;;;5.90;4.33;;;10.30;99.90;;;;;;5002010;28;20239;-60
2022/11/07 01:50:01;;;;;;;5.50;4.80;;;10.20;99.90;;;;;;5014226;28;20684;-60
2022/11/07 01:52:33;;;;;;;8.27;4.90;;;10.20;99.90;;;;;;4996656;28;20276;-60
2022/11/07 01:55:08;;;;;;;5.40;3.87;;;10.30;99.90;;;;;;4996869;28;20230;-60
2022/11/07 01:57:42;;;;;;;4.73;4.23;;;10.30;99.90;;;;;;5004584;28;20355;-60
2022/11/07 02:00:15;;;;;;;7.17;4.40;;;10.30;99.90;;;;;;5008308;28;20224;-61
2022/11/07 02:02:45;;;;;;;4.80;3.87;;;10.40;99.90;;;;;;5016102;28;20233;-60
2022/11/07 02:05:17;;;;;;;8.67;4.30;;;10.40;99.90;;;;;;5016243;28;20252;-60
2022/11/07 02:07:46;;;;;;;6.87;4.23;;;10.40;99.90;;;;;;5016325;28;20244;-61
2022/11/07 02:10:15;;;;;;;4.90;4.20;;;10.40;99.90;;;;;;5016561;28;20288;-59
2022/11/07 02:12:44;;;;;;;5.57;4.53;;;10.50;99.90;;;;;;5016150;28;20230;-60
2022/11/07 02:15:13;;;;;;;6.73;4.40;;;10.40;99.90;;;;;;5008971;28;20222;-61
2022/11/07 02:17:41;;;;;;;5.90;4.40;;;10.50;99.90;;;;;;5009763;28;20589;-60
2022/11/07 02:20:11;;;;;;;5.27;4.67;;;10.50;99.90;;;;;;5008285;28;20229;-61
2022/11/07 02:22:46;;;;;;;6.17;4.20;;;10.50;99.90;;;;;;5016409;28;20646;-61
2022/11/07 02:25:17;;;;;;;5.07;4.57;;;10.50;99.90;;;;;;5016620;28;20279;-61
2022/11/07 02:27:48;;;;;;;4.53;4.10;;;10.50;99.90;;;;;;5016056;28;20232;-61
2022/11/07 02:30:19;;;;;;;4.53;4.00;;;10.50;99.90;;;;;;5008714;28;20245;-60
2022/11/07 02:32:47;;;;;;;8.83;5.00;;;10.60;99.90;;;;;;5016112;28;20229;-61
2022/11/07 02:35:38;;;;;;;5.43;4.20;;;10.60;99.90;;;;;;5016713;28;20233;-60
2022/11/07 02:38:11;;;;;;;6.57;4.40;;;10.60;99.90;;;;;;5016840;28;20233;-61
2022/11/07 02:40:41;;;;;;;7.17;4.20;;;10.60;99.90;;;;;;5016314;28;20693;-61
2022/11/07 02:43:11;;;;;;;4.93;4.10;;;10.60;99.90;;;;;;5016668;28;20276;-61
2022/11/07 02:45:43;;;;;;;6.17;4.10;;;10.60;99.90;;;;;;4988589;28;20567;-61
2022/11/07 02:48:11;;;;;;;5.63;4.20;;;10.60;99.90;;;;;;4989025;28;20223;-61
2022/11/07 02:50:40;;;;;;;5.47;3.87;;;10.60;99.90;;;;;;4989821;28;20227;-61
2022/11/07 02:53:08;;;;;;;6.17;3.97;;;10.60;99.90;;;;;;4977668;28;20308;-61
2022/11/07 02:55:36;;;;;;;5.40;3.83;;;10.60;99.90;;;;;;4977717;28;20236;-61
2022/11/07 02:58:05;;;;;;;5.80;4.17;;;10.60;99.90;;;;;;4988428;28;20237;-60
2022/11/07 03:00:33;;;;;;;5.77;3.63;;;10.70;99.90;;;;;;4981591;28;20653;-61
2022/11/07 03:03:01;;;;;;;7.63;5.53;;;10.70;99.90;;;;;;4979850;28;20226;-61
2022/11/07 03:05:30;;;;;;;4.63;3.80;;;10.70;99.90;;;;;;4983149;28;20322;-61
2022/11/07 03:07:58;;;;;;;6.57;3.77;;;10.80;99.90;;;;;;4976973;28;20688;-61
2022/11/07 03:10:26;;;;;;;4.93;3.77;;;10.70;99.90;;;;;;4977898;28;20243;-61
2022/11/07 03:12:54;;;;;;;6.13;4.30;;;10.70;99.90;;;;;;4982313;28;20227;-61
2022/11/07 03:15:23;;;;;;;6.47;4.00;;;10.70;99.90;;;;;;4988932;28;20284;-61
2022/11/07 03:17:51;;;;;;;5.00;3.87;;;10.70;99.90;;;;;;4981949;28;20228;-60
2022/11/07 03:20:19;;;;;;;5.93;4.00;;;10.70;99.90;;;;;;4991885;28;20221;-61
2022/11/07 03:22:47;;;;;;;5.53;3.77;;;10.70;99.90;;;;;;4976913;28;20230;-60
2022/11/07 03:25:15;;;;;;;4.30;3.50;;;10.70;99.90;;;;;;4976924;28;20219;-61
2022/11/07 03:27:47;;;;;;;6.20;3.63;;;10.80;99.90;;;;;;4985108;28;20711;-61
2022/11/07 03:30:16;;;;;;;7.93;4.20;;;10.80;99.90;;;;;;4988879;28;20234;-60
2022/11/07 03:32:45;;;;;;;4.97;3.33;;;10.80;99.90;;;;;;4978417;28;20239;-61
2022/11/07 03:35:14;;;;;;;5.93;3.20;;;10.80;99.90;;;;;;4977051;28;20688;-61
2022/11/07 03:37:45;;;;;;;6.27;3.77;;;10.80;99.90;;;;;;4976688;28;20231;-61
2022/11/07 03:40:13;;;;;;;7.13;3.67;;;10.90;99.90;;;;;;4977116;28;20279;-61
2022/11/07 03:42:42;;;;;;;4.70;3.60;;;10.90;99.90;;;;;;4983391;28;20349;-61
2022/11/07 03:45:11;;;;;;;5.87;3.60;;;10.90;99.90;;;;;;5004365;28;20235;-61
2022/11/07 03:47:41;;;;;;;4.40;3.40;;;10.90;99.90;;;;;;5013751;28;20230;-61
2022/11/07 03:50:13;;;;;;;5.23;3.73;;;10.90;99.90;;;;;;5009750;28;20227;-61
2022/11/07 03:52:41;;;;;;;5.07;3.33;;;10.90;99.90;;;;;;4994954;28;20222;-61
2022/11/07 03:55:09;;;;;;;7.63;3.93;;;10.90;99.90;;;;;;4996079;28;20638;-61
2022/11/07 03:57:38;;;;;;;4.83;3.60;;;10.90;99.90;;;;;;5003675;28;20234;-61
2022/11/07 04:00:07;;;;;;;7.23;4.17;;;10.90;99.90;;;;;;5006965;28;20620;-61
2022/11/07 04:02:42;;;;;;;7.13;3.83;;;11.00;99.90;;;;;;5015084;28;20571;-61
2022/11/07 04:05:13;;;;;;;5.00;3.67;;;11.00;99.90;;;;;;5015293;28;20253;-61
2022/11/07 04:07:41;;;;;;;6.57;3.90;;;11.00;99.90;;;;;;5015201;28;20234;-61
2022/11/07 04:10:09;;;;;;;6.23;3.63;;;11.00;99.90;;;;;;5015371;28;20238;-61
2022/11/07 04:18:08;;;;;;;5.43;3.07;;;11.00;99.90;;;;;;5008340;28;20223;-61
2022/11/07 04:20:38;;;;;;;7.67;2.93;;;11.00;99.90;;;;;;5007282;28;20222;-61
2022/11/07 04:23:06;;;;;;;7.17;3.30;;;11.00;99.90;;;;;;5015761;28;20243;-61
2022/11/07 04:28:19;;;;;;;7.50;3.47;;;11.00;99.90;;;;;;5010327;28;20563;-61
2022/11/07 04:30:47;;;;;;;5.83;3.10;;;11.00;99.90;;;;;;5011801;28;20238;-61
2022/11/07 04:33:15;;;;;;;7.10;3.00;;;11.00;99.90;;;;;;5015404;28;20586;-61
2022/11/07 04:35:45;;;;;;;5.70;2.70;;;11.00;99.90;;;;;;5015510;28;20694;-61
2022/11/07 04:38:13;;;;;;;4.53;2.73;;;11.00;99.90;;;;;;5007551;28;20238;-61
2022/11/07 04:40:41;;;;;;;5.73;2.77;;;11.00;99.90;;;;;;5003248;28;20262;-61
2022/11/07 04:43:09;;;;;;;6.73;3.27;;;11.00;99.90;;;;;;5003036;28;20245;-61
2022/11/07 04:45:38;;;;;;;4.87;2.83;;;11.10;99.90;;;;;;5026744;28;20643;-61
2022/11/07 04:48:07;;;;;;;3.87;2.60;;;11.10;99.90;;;;;;5035074;28;20225;-61
2022/11/07 04:50:36;;;;;;;5.27;2.27;;;11.10;99.90;;;;;;5026258;28;20292;-61
2022/11/07 04:53:06;;;;;;;7.83;2.83;;;11.10;99.90;;;;;;5034365;28;20218;-61
2022/11/07 04:55:34;;;;;;;6.23;2.70;;;11.10;99.90;;;;;;5031768;28;20578;-61
2022/11/07 04:58:02;;;;;;;5.17;2.43;;;11.10;99.90;;;;;;5030454;28;20242;-61
2022/11/07 05:00:30;;;;;;;5.47;2.27;;;11.10;99.90;;;;;;5019499;28;20226;-61
2022/11/07 05:02:58;;;;;;;7.90;2.50;;;11.10;99.90;;;;;;5016351;28;20241;-61
2022/11/07 05:05:26;;;;;;;8.73;2.63;;;11.10;99.90;;;;;;5018082;28;20284;-60
2022/11/07 05:07:54;;;;;;;5.97;2.73;;;11.10;99.90;;;;;;5018395;28;20235;-61
2022/11/07 05:10:25;;;;;;;6.57;2.57;;;11.10;99.90;;;;;;5017896;28;20277;-61
2022/11/07 05:12:54;;;;;;;5.90;2.90;;;11.10;99.90;;;;;;5023810;28;20234;-61
2022/11/07 05:15:23;;;;;;;4.97;2.73;;;11.10;99.90;;;;;;5029267;28;20226;-61
2022/11/07 05:17:51;;;;;;;7.20;2.40;;;11.10;99.90;;;;;;5031460;28;20280;-61
2022/11/07 05:20:30;;;;;;;6.03;2.90;;;11.00;99.90;;;;;;5029851;28;20229;-61
2022/11/07 05:23:17;;;;;;;5.40;2.43;;;11.00;99.90;;;;;;5037609;28;20259;-61
2022/11/07 05:25:49;;;;;;;3.80;2.40;;;11.00;99.90;;;;;;5037710;28;20253;-61
2022/11/07 05:28:21;;;;;;;5.83;2.77;;;11.00;99.90;;;;;;5033313;28;20241;-61
2022/11/07 05:30:59;;;;;;;6.57;2.50;;;11.00;99.90;;;;;;5036095;28;20269;-61
2022/11/07 05:33:28;;;;;;;6.20;2.23;;;11.00;99.90;;;;;;5037362;28;20229;-61
2022/11/07 05:35:56;;;;;;;6.47;2.40;;;11.10;99.90;;;;;;5037331;28;20233;-61
2022/11/07 05:38:24;;;;;;;5.67;2.33;;;11.10;99.90;;;;;;5037281;28;20701;-61
2022/11/07 05:40:54;;;;;;;8.80;2.70;;;11.10;99.90;;;;;;5038683;28;20225;-61
2022/11/07 05:43:22;;;;;;;7.03;2.47;;;11.10;99.90;;;;;;5034544;28;20581;-61
2022/11/07 05:45:51;;;;;;;6.63;2.83;;;11.10;99.90;;;;;;5027994;28;20678;-61
2022/11/07 05:48:19;;;;;;;6.67;3.20;;;11.20;99.90;;;;;;5030462;28;20222;-61
2022/11/07 05:50:47;;;;;;;9.83;2.90;;;11.10;99.90;;;;;;5028601;28;20758;-61
2022/11/07 05:53:15;;;;;;;5.70;2.80;;;11.10;99.90;;;;;;5037366;28;20590;-61
2022/11/07 05:55:44;;;;;;;7.40;2.83;;;11.00;99.90;;;;;;5037529;28;20226;-61
2022/11/07 05:58:13;;;;;;;7.07;2.43;;;11.00;99.90;;;;;;5032866;28;20217;-61
2022/11/07 06:00:42;;;;;;;6.97;2.63;;;11.00;99.90;;;;;;5036603;28;20318;-61
2022/11/07 06:03:10;;;;;;;8.33;3.10;;;11.00;99.90;;;;;;5037264;28;20221;-61
2022/11/07 06:05:39;;;;;;;6.83;2.80;;;11.00;99.90;;;;;;5036750;28;20237;-61
2022/11/07 06:08:09;;;;;;;8.90;2.67;;;11.00;99.90;;;;;;5036808;28;20237;-61
2022/11/07 06:10:38;;;;;;;8.87;2.47;;;11.10;99.90;;;;;;5036921;28;20241;-61
2022/11/07 06:13:09;;;;;;;7.47;2.63;;;11.10;99.90;;;;;;5036451;28;20246;-61
2022/11/07 06:15:40;;;;;;;6.53;2.53;;;11.00;99.90;;;;;;5027531;28;20242;-61
2022/11/07 06:18:12;;;;;;;9.77;3.00;;;11.00;99.90;;;;;;5029591;28;20344;-61
2022/11/07 06:20:40;;;;;;;8.20;3.00;;;11.00;99.90;;;;;;5028295;28;20233;-61
2022/11/07 06:23:08;;;;;;;8.80;3.10;;;11.00;99.90;;;;;;5037252;28;20608;-61
2022/11/07 06:25:36;;;;;;;6.33;2.53;;;11.00;99.90;;;;;;5036378;28;20585;-61
2022/11/07 06:28:07;;;;;;;7.30;3.00;;;10.90;99.90;;;;;;5033447;28;20708;-61
2022/11/07 06:30:35;;;;;;;7.10;3.20;;;11.00;99.90;;;;;;5030729;28;20235;-61
2022/11/07 06:33:07;;;;;;;6.93;2.60;;;11.00;99.90;;;;;;5034039;28;20225;-60
2022/11/07 06:35:36;;;;;;;6.20;2.50;;;11.00;99.90;;;;;;5026976;28;20231;-61
2022/11/07 06:38:05;;;;;;;9.80;3.00;;;11.00;99.90;;;;;;5031450;28;20237;-61
2022/11/07 06:40:34;;;;;;;8.13;3.00;;;11.10;99.90;;;;;;5024780;28;20226;-61
2022/11/07 06:43:13;;;;;;;6.13;2.47;;;11.10;99.90;;;;;;5025593;28;20228;-61
2022/11/07 06:45:43;;;;;;;6.43;2.27;;;11.10;99.90;;;;;;5026184;28;20232;-61
2022/11/07 06:48:13;;;;;;;6.20;2.80;;;11.10;99.90;;;;;;5028392;28;20230;-61
2022/11/07 06:50:41;;;;;;;8.50;2.77;;;11.10;99.90;;;;;;5027896;28;20629;-61
2022/11/07 06:53:11;;;;;;;9.60;3.03;;;11.20;99.90;;;;;;5035904;28;20235;-61
2022/11/07 06:55:40;;;;;;;7.13;2.33;;;11.20;99.90;;;;;;5028642;28;20234;-61
2022/11/07 06:58:08;;;;;;;9.03;2.90;;;11.20;99.90;;;;;;5028111;28;20276;-61
2022/11/07 07:00:37;;;;;;;4.90;2.43;;;11.20;99.90;;;;;;5028238;28;20703;-61
2022/11/07 07:03:05;;;;;;;6.77;2.90;;;11.20;99.90;;;;;;5033098;28;20227;-61
2022/11/07 07:05:35;;;;;;;5.70;2.20;;;11.30;99.90;;;;;;5035633;28;20264;-61
2022/11/07 07:08:04;;;;;;;7.17;2.30;;;11.30;99.90;;;;;;5029587;28;20230;-61
2022/11/07 07:10:36;;;;;;;9.67;2.60;;;11.30;99.90;;;;;;5016904;28;20223;-61
2022/11/07 07:13:04;;;;;;;8.57;2.60;;;11.30;99.90;;;;;;5023062;28;20640;-61
2022/11/07 07:15:32;;;;;;;3.97;2.37;;;11.40;99.90;;;;;;5023130;28;20226;-61
2022/11/07 07:18:17;;;;;;;8.57;2.93;;;11.40;99.90;;;;;;5029231;28;20241;-61
2022/11/07 07:20:47;;;;;;;7.13;2.43;;;11.40;99.90;;;;;;5024979;28;20292;-61
2022/11/07 07:23:15;;;;;;;11.73;2.60;;;11.50;99.90;;;;;;5036159;28;20689;-61
2022/11/07 07:25:44;;;;;;;7.00;2.20;;;11.60;99.90;;;;;;5030020;28;20229;-61
2022/11/07 07:28:12;;;;;;;5.57;2.80;;;11.60;99.90;;;;;;5030236;28;20226;-61
2022/11/07 07:30:40;;;;;;;7.90;2.80;;;11.60;99.90;;;;;;5023930;28;20244;-61
2022/11/07 07:33:08;;;;;;;6.83;2.60;;;11.60;99.90;;;;;;5020547;28;20233;-61
2022/11/07 07:35:36;;;;;;;7.03;2.70;;;11.60;99.90;;;;;;5030910;28;20325;-61
2022/11/07 07:38:05;;;;;;;9.80;2.67;;;11.70;99.90;;;;;;5026337;28;20230;-61
2022/11/07 07:40:33;;;;;;;6.43;2.30;;;11.70;99.90;;;;;;5028531;28;20246;-61
2022/11/07 07:43:01;;;;;;;9.10;2.67;;;11.70;99.90;;;;;;5021976;28;20226;-61
2022/11/07 07:45:29;;;;;;;8.47;2.60;;;11.70;99.90;;;;;;5027944;28;20317;-61
2022/11/07 07:48:01;;;;;;;9.00;2.50;;;11.70;99.90;;;;;;5022638;28;20237;-60
2022/11/07 07:50:29;;;;;;;7.80;2.63;;;11.70;99.90;;;;;;5018474;28;20545;-61
2022/11/07 07:52:57;;;;;;;9.73;2.77;;;11.80;99.90;;;;;;5020418;28;20240;-61
2022/11/07 07:55:26;;;;;;;8.17;2.20;;;11.80;99.90;;;;;;5018254;28;20234;-60
2022/11/07 07:57:55;;;;;;;11.90;2.77;;;11.80;99.90;;;;;;5021541;28;20228;-61
2022/11/07 08:00:23;;;;;;;7.10;2.43;;;11.90;99.90;;;;;;5021614;28;20237;-61
2022/11/07 08:02:51;;;;;;;8.07;2.97;;;11.90;99.90;;;;;;5022866;28;20227;-61
2022/11/07 08:05:19;;;;;;;6.60;2.33;;;11.90;99.90;;;;;;5022446;28;20231;-61
2022/11/07 08:07:48;;;;;;;7.67;2.73;;;12.00;99.90;;;;;;5022043;28;20234;-61
2022/11/07 08:10:18;;;;;;;7.30;2.70;;;12.00;99.90;;;;;;5025111;28;20290;-61
2022/11/07 08:13:07;;;;;;;7.00;2.67;;;12.00;99.90;;;;;;5027852;28;20270;-61
2022/11/07 08:15:35;;;;;;;8.20;2.53;;;12.00;99.90;;;;;;5028323;28;20262;-61
2022/11/07 08:18:04;;;;;;;7.67;2.73;;;12.00;99.90;;;;;;5022080;28;20234;-61
2022/11/07 08:20:32;;;;;;;7.27;2.73;;;12.10;99.90;;;;;;5022630;28;20218;-61
2022/11/07 08:23:01;;;;;;;7.47;2.70;;;12.10;99.90;;;;;;5025111;28;20223;-61
2022/11/07 08:25:29;;;;;;;10.87;3.03;;;12.30;99.90;;;;;;5023132;28;21121;-61
2022/11/07 08:27:57;;;;;;;7.17;2.77;;;12.30;99.90;;;;;;5025272;28;20230;-62
2022/11/07 08:30:27;;;;;;;4.47;2.87;;;12.30;99.90;;;;;;5026289;28;20228;-61
2022/11/07 08:32:55;;;;;;;7.70;3.17;;;12.40;99.90;;;;;;5028825;28;20229;-62
2022/11/07 08:35:23;;;;;;;11.37;3.43;;;12.30;99.90;;;;;;5028963;28;20277;-61
2022/11/07 08:37:52;;;;;;;6.73;2.90;;;12.30;99.90;;;;;;5032595;28;20247;-61
2022/11/07 08:40:21;;;;;;;9.37;3.17;;;12.40;99.90;;;;;;5033359;28;20238;-61
2022/11/07 08:42:49;;;;;;;8.60;3.30;;;12.40;99.90;;;;;;5039940;28;20235;-61
2022/11/07 08:45:17;;;;;;;7.37;3.00;;;12.50;99.90;;;;;;5013980;28;20240;-61
2022/11/07 08:47:47;;;;;;;8.30;3.37;;;12.40;99.90;;;;;;5033583;28;20270;-61
2022/11/07 08:50:15;;;;;;;9.50;3.67;;;12.50;99.90;;;;;;5032928;28;20253;-62
2022/11/07 08:52:43;;;;;;;9.83;3.23;;;12.60;99.90;;;;;;5030919;28;20245;-61
2022/11/07 08:55:11;;;;;;;9.77;4.77;;;12.80;99.90;;;;;;5028663;28;20235;-62
2022/11/07 08:57:39;;;;;;;10.50;4.70;;;12.90;99.90;;;;;;5024871;28;20238;-62
2022/11/07 09:00:08;;;;;;;7.83;3.23;;;13.20;99.90;;;;;;5027792;28;20692;-62
2022/11/07 09:02:36;;;;;;;8.33;3.20;;;13.30;99.90;;;;;;5025636;28;20242;-62
2022/11/07 09:05:25;;;;;;;7.80;3.60;;;13.20;99.90;;;;;;5025747;28;20219;-62
2022/11/07 09:07:53;;;;;;;8.33;3.13;;;13.00;99.90;;;;;;5025389;28;20230;-61
2022/11/07 09:10:22;;;;;;;5.77;2.60;;;13.00;99.90;;;;;;5030894;28;20278;-62
2022/11/07 09:12:50;;;;;;;9.57;3.00;;;13.20;99.90;;;;;;5030012;28;20235;-62
2022/11/07 09:15:19;;;;;;;6.40;2.73;;;13.30;99.90;;;;;;5029808;28;20238;-62
2022/11/07 09:17:49;;;;;;;8.90;3.40;;;13.70;99.90;;;;;;5030870;28;20298;-62
2022/11/07 09:20:18;;;;;;;9.00;3.47;;;13.70;99.90;;;;;;5031897;28;20603;-62
2022/11/07 09:22:48;;;;;;;11.73;3.10;;;13.60;99.90;;;;;;5027576;28;20240;-61
2022/11/07 09:25:16;;;;;;;6.87;2.93;;;13.60;99.90;;;;;;5030458;28;20711;-62
2022/11/07 09:27:46;;;;;;;7.63;3.47;;;13.70;99.90;;;;;;5032653;28;20240;-62
2022/11/07 09:30:14;;;;;;;8.40;3.30;;;13.80;99.90;;;;;;5034269;28;20235;-62
2022/11/07 09:32:42;;;;;;;7.20;3.00;;;13.80;99.90;;;;;;5032043;28;20615;-62
2022/11/07 09:35:13;;;;;;;6.67;3.20;;;13.70;99.90;;;;;;5030560;28;20263;-62
2022/11/07 09:37:42;;;;;;;7.17;2.70;;;13.60;99.90;;;;;;5033160;28;20258;-62
2022/11/07 09:40:23;;;;;;;6.77;3.13;;;13.50;99.90;;;;;;5034735;28;20247;-62
2022/11/07 09:43:04;;;;;;;5.97;3.10;;;13.60;99.90;;;;;;5033601;28;20239;-62
2022/11/07 09:45:38;;;;;;;9.93;2.90;;;13.50;99.90;;;;;;5011132;28;20248;-62
2022/11/07 09:48:14;;;;;;;10.07;3.20;;;13.50;99.90;;;;;;5013891;28;20232;-62
2022/11/07 09:50:43;;;;;;;9.13;2.67;;;13.40;99.90;;;;;;5013885;28;20240;-62
2022/11/07 09:53:18;;;;;;;6.03;3.20;;;13.30;99.90;;;;;;5009764;28;20244;-62
2022/11/07 09:55:52;;;;;;;8.83;2.77;;;13.20;99.90;;;;;;5011210;28;20696;-62
2022/11/07 09:58:26;;;;;;;11.40;2.70;;;13.10;99.90;;;;;;5010079;28;20354;-62
2022/11/07 10:00:56;;;;;;;9.10;2.90;;;13.10;99.90;;;;;;5010162;28;20238;-62
2022/11/07 10:03:25;;;;;;;11.30;3.43;;;13.00;99.90;;;;;;5009545;28;20236;-62
2022/11/07 10:06:02;;;;;;;6.53;3.30;;;12.90;99.90;;;;;;5008958;28;20235;-62
2022/11/07 10:08:38;;;;;;;7.57;3.13;;;12.90;99.90;;;;;;5009295;28;20239;-62
2022/11/07 10:11:13;;;;;;;7.87;2.97;;;12.90;99.90;;;;;;5008896;28;20262;-62
2022/11/07 10:13:58;;;;;;;5.60;3.40;;;12.90;99.90;;;;;;5006521;28;20231;-62
2022/11/07 10:16:39;;;;;;;8.33;3.03;;;13.00;99.90;;;;;;5012006;28;20248;-60
2022/11/07 10:19:20;;;;;;;6.53;2.97;;;13.10;99.90;;;;;;5010526;28;20243;-61
2022/11/07 10:21:55;;;;;;;10.23;3.40;;;13.20;99.90;;;;;;5010368;28;20236;-62
2022/11/07 10:24:34;;;;;;;7.67;3.73;;;13.30;99.90;;;;;;5012416;28;20228;-62
2022/11/07 10:27:08;;;;;;;9.03;3.70;;;13.40;99.90;;;;;;5014921;28;20236;-62
2022/11/07 10:29:43;;;;;;;11.27;3.33;;;13.40;99.90;;;;;;5017433;28;20232;-62
2022/11/07 10:32:21;;;;;;;8.50;3.53;;;13.50;99.90;;;;;;5014372;28;20274;-62
2022/11/07 10:34:55;;;;;;;7.10;3.20;;;13.60;99.90;;;;;;5013196;28;20283;-62
2022/11/07 10:37:23;;;;;;;12.13;3.80;;;13.60;99.90;;;;;;5010791;28;20224;-62
2022/11/07 10:39:52;;;;;;;7.70;3.13;;;13.60;99.90;;;;;;5012524;28;20652;-62
2022/11/07 10:42:24;;;;;;;11.47;3.83;;;13.60;99.90;;;;;;5011760;28;20565;-62
2022/11/07 10:44:53;;;;;;;9.27;3.10;;;13.70;99.90;;;;;;5011589;28;20248;-62
2022/11/07 10:47:23;;;;;;;12.03;3.90;;;13.70;99.90;;;;;;5013501;28;20282;-62
2022/11/07 10:49:56;;;;;;;10.47;3.20;;;13.60;99.90;;;;;;5014155;28;20267;-62
2022/11/07 10:52:25;;;;;;;11.97;4.03;;;13.70;99.90;;;;;;5013902;28;20234;-62
2022/11/07 10:55:06;;;;;;;8.67;3.50;;;13.70;99.90;;;;;;5011124;28;20240;-62
2022/11/07 10:57:36;;;;;;;8.57;3.50;;;13.60;99.90;;;;;;5013092;28;20260;-62
2022/11/07 11:00:21;;;;;;;10.67;3.70;;;13.60;99.90;;;;;;5015870;28;20241;-62
2022/11/07 11:02:50;;;;;;;7.47;3.30;;;13.60;99.90;;;;;;5013239;28;20598;-62
2022/11/07 11:05:23;;;;;;;8.03;3.73;;;13.50;99.90;;;;;;5007412;28;20594;-62
2022/11/07 11:07:51;;;;;;;9.20;3.20;;;13.40;99.90;;;;;;5009217;28;20723;-62
2022/11/07 11:10:21;;;;;;;11.50;3.40;;;13.50;99.90;;;;;;5010356;28;21034;-62
2022/11/07 11:12:51;;;;;;;7.27;3.03;;;13.50;99.90;;;;;;5011487;28;20247;-62
2022/11/07 11:15:22;;;;;;;8.77;3.73;;;13.40;99.90;;;;;;5008065;28;20263;-62
2022/11/07 11:18:00;;;;;;;8.57;3.20;;;13.40;99.90;;;;;;5012056;28;20754;-62
2022/11/07 11:20:33;;;;;;;10.10;3.40;;;13.50;99.90;;;;;;5010066;28;20239;-62
2022/11/07 11:23:03;;;;;;;9.70;3.23;;;13.50;99.90;;;;;;5011223;28;20225;-62
2022/11/07 11:25:31;;;;;;;7.97;3.17;;;13.50;99.90;;;;;;5012325;28;20228;-62
2022/11/07 11:28:05;;;;;;;10.57;3.97;;;13.50;99.90;;;;;;5011851;28;20580;-62
2022/11/07 11:30:36;;;;;;;7.20;3.27;;;13.50;99.90;;;;;;5010519;28;20948;-62
2022/11/07 11:33:11;;;;;;;9.23;3.10;;;13.50;99.90;;;;;;5013620;28;20597;-62
2022/11/07 11:35:45;;;;;;;9.37;3.83;;;13.50;99.90;;;;;;5010799;28;20336;-62
2022/11/07 11:38:17;;;;;;;9.73;3.60;;;13.40;99.90;;;;;;5010606;28;20236;-62
2022/11/07 11:40:51;;;;;;;8.87;3.03;;;13.40;99.90;;;;;;5008154;28;20240;-62
2022/11/07 11:43:37;;;;;;;10.13;3.70;;;13.40;99.90;;;;;;5007391;28;20241;-62
2022/11/07 11:46:10;;;;;;;10.43;3.63;;;13.40;99.90;;;;;;5006127;28;20236;-62
2022/11/07 11:48:43;;;;;;;7.93;3.20;;;13.40;99.90;;;;;;5011843;28;20236;-62
2022/11/07 11:51:18;;;;;;;8.93;3.60;;;13.50;99.90;;;;;;5011534;28;20242;-62
2022/11/07 11:53:46;;;;;;;11.77;3.90;;;13.40;99.90;;;;;;5012201;28;20332;-62
2022/11/07 11:56:36;;;;;;;7.73;3.10;;;13.50;99.90;;;;;;5013582;28;20324;-62
2022/11/07 11:59:34;;;;;;;11.03;3.70;;;13.50;99.90;;;;;;5012447;28;20321;-62
2022/11/07 12:02:38;;;;;;;10.43;3.97;;;13.60;99.90;;;;;;5010070;28;20251;-62
2022/11/07 12:05:19;;;;;;;9.60;3.47;;;13.70;99.90;;;;;;4960790;28;20240;-62
2022/11/07 12:07:59;;;;;;;9.97;4.23;;;13.80;99.90;;;;;;5008043;28;20249;-62
2022/11/07 12:10:31;;;;;;;10.03;3.50;;;13.90;99.90;;;;;;5006010;28;20244;-62
2022/11/07 12:13:08;;;;;;;9.33;3.23;;;13.80;99.90;;;;;;5005597;28;20255;-62
2022/11/07 12:15:50;;;;;;;7.87;3.70;;;13.80;99.90;;;;;;5005688;28;20821;-62
2022/11/07 12:18:24;;;;;;;8.87;3.23;;;13.70;99.90;;;;;;5006806;28;20229;-62
2022/11/07 12:21:05;;;;;;;7.67;3.73;;;13.70;99.90;;;;;;5005153;28;20270;-62
2022/11/07 12:23:51;;;;;;;7.93;3.43;;;13.70;99.90;;;;;;4999811;28;20239;-62
2022/11/07 12:26:28;;;;;;;16.23;5.03;;;13.60;99.90;;;;;;5004151;28;20220;-62
2022/11/07 12:29:04;;;;;;;11.13;4.00;;;13.50;99.90;;;;;;5009398;28;20234;-62
2022/11/07 12:31:47;;;;;;;7.50;3.47;;;13.50;99.90;;;;;;5005673;28;20271;-62
2022/11/07 12:34:25;;;;;;;8.83;3.20;;;13.60;99.90;;;;;;5007081;28;20228;-62
2022/11/07 12:37:08;;;;;;;7.07;2.80;;;13.60;99.90;;;;;;5010496;28;20244;-62
2022/11/07 12:39:51;;;;;;;8.43;3.30;;;13.70;99.90;;;;;;5010159;28;20239;-62
2022/11/07 12:42:30;;;;;;;9.33;2.80;;;13.70;99.90;;;;;;5011420;28;20240;-62
2022/11/07 12:45:10;;;;;;;8.43;2.83;;;13.80;99.90;;;;;;5007062;28;20258;-62
2022/11/07 12:47:55;;;;;;;10.20;3.43;;;13.80;99.90;;;;;;5008273;28;20243;-62
2022/11/07 12:50:35;;;;;;;6.23;2.63;;;13.90;99.90;;;;;;5008294;28;20239;-62
2022/11/07 12:53:16;;;;;;;10.23;3.90;;;14.00;99.90;;;;;;5006185;28;20236;-62
2022/11/07 12:55:48;;;;;;;6.93;3.20;;;14.00;99.90;;;;;;5009128;28;20376;-62
2022/11/07 12:58:21;;;;;;;6.80;2.80;;;14.00;99.90;;;;;;5008848;28;20230;-62
2022/11/07 13:00:50;;;;;;;8.97;3.70;;;14.00;99.90;;;;;;5009669;28;20240;-62
2022/11/07 13:03:38;;;;;;;11.27;3.07;;;14.00;99.90;;;;;;5008031;28;20263;-62
2022/11/07 13:06:14;;;;;;;8.37;2.97;;;13.90;99.90;;;;;;5011131;28;20240;-62
2022/11/07 13:08:52;;;;;;;7.17;3.17;;;13.80;99.90;;;;;;5011159;28;20244;-62
2022/11/07 13:11:27;;;;;;;8.70;3.30;;;13.60;99.90;;;;;;5011651;28;20717;-62
2022/11/07 13:14:07;;;;;;;9.43;3.03;;;13.50;99.90;;;;;;5011816;28;20243;-62
2022/11/07 13:16:36;;;;;;;7.07;2.87;;;13.40;99.90;;;;;;5014228;28;20239;-62
2022/11/07 13:19:30;;;;;;;8.80;2.83;;;13.40;99.90;;;;;;5011162;28;20319;-63